createdAt,value
2022-12-01T00:03:00.159Z,5.14
2022-12-01T00:08:32.094Z,5.35
2022-12-01T00:14:03.477Z,5.26
2022-12-01T00:19:35.193Z,5.29
2022-12-01T00:25:06.745Z,4.91
2022-12-01T00:30:38.621Z,4.88
2022-12-01T00:36:10.400Z,5.11
2022-12-01T00:41:41.958Z,5.09
2022-12-01T00:47:18.061Z,5.2
2022-12-01T00:52:49.774Z,5.05
2022-12-01T00:58:21.524Z,5.1
2022-12-01T01:03:53.409Z,5.1
2022-12-01T01:09:25.386Z,5.12
2022-12-01T01:14:57.060Z,4.79
2022-12-01T01:20:28.333Z,5.17
2022-12-01T01:26:00.347Z,5.3
2022-12-01T01:31:31.953Z,4.98
2022-12-01T01:37:03.535Z,5.12
2022-12-01T01:42:35.429Z,5.16
2022-12-01T01:48:11.509Z,4.88
2022-12-01T01:53:43.041Z,5.09
2022-12-01T01:59:14.896Z,5.08
2022-12-01T02:04:46.497Z,5.17
2022-12-01T02:10:23.322Z,5.06
2022-12-01T02:15:49.936Z,5.21
2022-12-01T02:21:21.634Z,5.6
2022-12-01T02:26:53.544Z,5.65
2022-12-01T02:32:25.420Z,5.65
2022-12-01T02:37:56.943Z,5.63
2022-12-01T02:43:28.981Z,5.28
2022-12-01T02:49:04.908Z,4.93
2022-12-01T02:54:36.584Z,5.17
2022-12-01T03:00:08.122Z,5.38
2022-12-01T03:05:40.185Z,5.23
2022-12-01T03:11:11.594Z,5.27
2022-12-01T03:16:43.581Z,5.26
2022-12-01T03:22:15.010Z,5.11
2022-12-01T03:28:00.870Z,5.27
2022-12-01T03:33:18.617Z,5.25
2022-12-01T03:38:50.172Z,5.05
2022-12-01T03:44:21.897Z,4.8
2022-12-01T03:49:58.029Z,4.8
2022-12-01T03:55:29.748Z,4.68
2022-12-01T04:01:01.543Z,4.76
2022-12-01T04:06:33.229Z,4.64
2022-12-01T04:12:05.088Z,4.81
2022-12-01T04:17:36.913Z,4.56
2022-12-01T04:23:08.492Z,4.69
2022-12-01T04:28:40.502Z,4.85
2022-12-01T04:34:11.817Z,4.72
2022-12-01T04:39:43.797Z,4.63
2022-12-01T04:45:15.208Z,4.95
2022-12-01T04:50:51.376Z,5.05
2022-12-01T04:56:23.084Z,5.01
2022-12-01T05:01:55.059Z,5.27
2022-12-01T05:07:26.815Z,5.21
2022-12-01T05:12:58.459Z,5.38
2022-12-01T05:18:30.013Z,5.27
2022-12-01T05:24:02.118Z,5.46
2022-12-01T05:29:33.521Z,5.43
2022-12-01T05:35:05.210Z,5.42
2022-12-01T05:40:37.200Z,5.23
2022-12-01T05:46:08.907Z,5.22
2022-12-01T05:51:45.009Z,5.27
2022-12-01T05:57:16.596Z,4.87
2022-12-01T06:02:48.428Z,5.14
2022-12-01T06:08:19.928Z,5.3
2022-12-01T06:13:51.820Z,5.19
2022-12-01T06:19:23.611Z,5.19
2022-12-01T06:24:55.456Z,5.02
2022-12-01T06:30:26.782Z,5.18
2022-12-01T06:35:58.761Z,5.22
2022-12-01T06:41:30.304Z,5.21
2022-12-01T06:47:02.255Z,5.06
2022-12-01T06:52:40.456Z,4.96
2022-12-01T06:58:11.872Z,5.06
2022-12-01T07:03:43.637Z,5.28
2022-12-01T07:09:15.316Z,5.2
2022-12-01T07:14:47.072Z,5.07
2022-12-01T07:20:19.006Z,5.04
2022-12-01T07:25:50.780Z,4.95
2022-12-01T07:31:22.779Z,5.11
2022-12-01T07:36:54.129Z,5.25
2022-12-01T07:42:25.668Z,5.21
2022-12-01T07:47:57.342Z,4.98
2022-12-01T07:53:33.683Z,5.1
2022-12-01T07:59:05.265Z,5.1
2022-12-01T08:04:36.992Z,5.21
2022-12-01T08:10:08.667Z,5.33
2022-12-01T08:15:40.656Z,5.4
2022-12-01T08:21:12.147Z,5.31
2022-12-01T08:26:44.521Z,5.32
2022-12-01T08:32:15.804Z,5.02
2022-12-01T08:37:54.593Z,5.23
2022-12-01T08:43:49.931Z,5.3
2022-12-01T08:48:58.155Z,5.0
2022-12-01T08:54:36.172Z,4.92
2022-12-01T09:00:07.743Z,5.22
2022-12-01T09:05:39.479Z,5.11
2022-12-01T09:11:11.128Z,5.13
2022-12-01T09:16:43.005Z,5.2
2022-12-01T09:22:14.845Z,4.76
2022-12-01T09:27:46.572Z,5.11
2022-12-01T09:33:18.058Z,5.38
2022-12-01T09:38:49.733Z,5.22
2022-12-01T09:44:21.678Z,5.22
2022-12-01T09:49:53.204Z,5.28
2022-12-01T09:55:29.311Z,5.19
2022-12-01T10:01:01.068Z,5.12
2022-12-01T10:06:32.761Z,5.04
2022-12-01T10:12:04.470Z,4.7
2022-12-01T10:17:37.161Z,5.03
2022-12-01T10:23:08.240Z,4.81
2022-12-01T10:28:39.899Z,4.79
2022-12-01T10:34:12.395Z,4.78
2022-12-01T10:39:43.396Z,4.53
2022-12-01T10:45:14.939Z,4.83
2022-12-01T10:50:46.573Z,4.66
2022-12-01T10:56:25.001Z,4.57
2022-12-01T11:01:56.511Z,4.72
2022-12-01T11:07:28.160Z,5.05
2022-12-01T11:12:59.846Z,5.03
2022-12-01T11:18:31.661Z,5.27
2022-12-01T11:24:03.326Z,5.29
2022-12-01T11:29:35.164Z,5.49
2022-12-01T11:35:07.119Z,5.27
2022-12-01T11:40:38.420Z,5.68
2022-12-01T11:46:10.889Z,5.72
2022-12-01T11:51:41.857Z,5.63
2022-12-01T11:57:33.502Z,5.62
2022-12-01T12:02:49.719Z,5.55
2022-12-01T12:08:21.392Z,5.56
2022-12-01T12:13:53.345Z,5.47
2022-12-01T12:19:28.937Z,5.57
2022-12-01T12:24:56.579Z,5.47
2022-12-01T12:30:28.608Z,5.42
2022-12-01T12:35:59.985Z,5.65
2022-12-01T12:41:31.969Z,5.31
2022-12-01T12:47:04.287Z,5.17
2022-12-01T12:52:35.116Z,5.14
2022-12-01T12:58:11.557Z,5.25
2022-12-01T13:03:43.213Z,5.31
2022-12-01T13:09:14.941Z,5.2
2022-12-01T13:14:46.482Z,5.19
2022-12-01T13:20:18.153Z,5.28
2022-12-01T13:25:50.154Z,5.08
2022-12-01T13:31:21.784Z,5.11
2022-12-01T13:36:54.043Z,5.21
2022-12-01T13:42:25.057Z,5.24
2022-12-01T13:47:57.180Z,5.26
2022-12-01T13:53:28.789Z,5.36
2022-12-01T13:59:07.284Z,5.2
2022-12-01T14:04:38.717Z,5.26
2022-12-01T14:10:10.280Z,5.43
2022-12-01T14:15:41.875Z,5.32
2022-12-01T14:21:13.725Z,5.25
2022-12-01T14:26:45.235Z,5.47
2022-12-01T14:32:17.187Z,5.56
2022-12-01T14:37:48.911Z,5.72
2022-12-01T14:43:20.470Z,6.07
2022-12-01T14:48:52.434Z,5.78
2022-12-01T14:54:23.887Z,5.8
2022-12-01T15:00:02.024Z,5.66
2022-12-01T15:05:33.930Z,5.51
2022-12-01T15:11:10.792Z,5.53
2022-12-01T15:16:37.309Z,5.43
2022-12-01T15:22:09.332Z,5.4
2022-12-01T15:27:40.647Z,5.81
2022-12-01T15:33:12.388Z,5.78
2022-12-01T15:38:44.066Z,5.81
2022-12-01T15:44:15.814Z,6.04
2022-12-01T15:49:47.529Z,6.24
2022-12-01T15:55:19.276Z,6.2
2022-12-01T16:00:55.397Z,6.03
2022-12-01T16:06:27.298Z,6.15
2022-12-01T16:11:59.017Z,6.17
2022-12-01T16:17:30.775Z,6.27
2022-12-01T16:23:02.485Z,6.02
2022-12-01T16:28:33.988Z,6.2
2022-12-01T16:34:14.036Z,6.1
2022-12-01T16:39:37.665Z,6.16
2022-12-01T16:45:09.173Z,6.16
2022-12-01T16:50:41.096Z,6.09
2022-12-01T16:56:12.715Z,5.9
2022-12-01T17:01:48.755Z,6.02
2022-12-01T17:07:20.712Z,5.96
2022-12-01T17:12:52.976Z,5.99
2022-12-01T17:18:24.175Z,5.95
2022-12-01T17:23:55.671Z,6.04
2022-12-01T17:29:27.633Z,5.77
2022-12-01T17:34:59.143Z,5.88
2022-12-01T17:40:31.059Z,6.06
2022-12-01T17:46:02.620Z,6.02
2022-12-01T17:51:34.565Z,5.69
2022-12-01T17:57:06.221Z,5.69
2022-12-01T18:02:42.230Z,5.55
2022-12-01T18:08:13.925Z,5.74
2022-12-01T18:13:45.895Z,5.5
2022-12-01T18:19:17.533Z,5.68
2022-12-01T18:24:49.248Z,5.77
2022-12-01T18:30:21.055Z,5.94
2022-12-01T18:35:52.819Z,5.87
2022-12-01T18:41:24.510Z,5.74
2022-12-01T18:46:56.096Z,5.59
2022-12-01T18:52:27.917Z,5.74
2022-12-01T18:57:59.697Z,5.64
2022-12-01T19:03:35.541Z,5.45
2022-12-01T19:09:07.207Z,5.56
2022-12-01T19:14:39.036Z,5.75
2022-12-01T19:20:10.992Z,5.62
2022-12-01T19:25:42.727Z,5.83
2022-12-01T19:31:14.208Z,5.88
2022-12-01T19:36:46.052Z,5.56
2022-12-01T19:42:17.590Z,5.59
2022-12-01T19:47:49.344Z,5.58
2022-12-01T19:53:21.369Z,5.59
2022-12-01T19:58:52.934Z,5.87
2022-12-01T20:04:31.128Z,5.94
2022-12-01T20:10:02.929Z,5.72
2022-12-01T20:15:34.350Z,5.65
2022-12-01T20:21:06.112Z,5.72
2022-12-01T20:26:38.353Z,5.81
2022-12-01T20:32:09.550Z,5.79
2022-12-01T20:37:41.239Z,5.76
2022-12-01T20:43:12.977Z,5.86
2022-12-01T20:48:44.749Z,5.75
2022-12-01T20:54:28.619Z,5.93
2022-12-01T20:59:48.157Z,5.65
2022-12-01T21:05:25.192Z,5.65
2022-12-01T21:10:56.001Z,5.67
2022-12-01T21:16:28.636Z,5.71
2022-12-01T21:21:59.471Z,5.46
2022-12-01T21:27:31.402Z,5.51
2022-12-01T21:33:03.041Z,5.4
2022-12-01T21:38:34.558Z,5.43
2022-12-01T21:44:06.338Z,5.47
2022-12-01T21:49:38.014Z,5.35
2022-12-01T21:55:09.794Z,5.29
2022-12-01T22:00:41.635Z,5.6
2022-12-01T22:06:30.715Z,5.58
2022-12-01T22:11:49.333Z,5.7
2022-12-01T22:17:21.038Z,5.67
2022-12-01T22:22:52.956Z,5.89
2022-12-01T22:28:24.474Z,5.85
2022-12-01T22:34:00.112Z,5.82
2022-12-01T22:39:27.901Z,5.88
2022-12-01T22:44:59.842Z,5.92
2022-12-01T22:50:31.616Z,6.13
2022-12-01T22:56:03.305Z,5.97
2022-12-01T23:01:35.365Z,5.76
2022-12-01T23:07:11.221Z,5.52
2022-12-01T23:12:43.306Z,5.55
2022-12-01T23:18:14.416Z,5.51
2022-12-01T23:23:46.121Z,5.74
2022-12-01T23:29:18.078Z,5.47
2022-12-01T23:34:49.930Z,5.32
2022-12-01T23:40:21.305Z,5.38
2022-12-01T23:45:53.746Z,5.33
2022-12-01T23:51:25.046Z,5.47
2022-12-01T23:56:56.468Z,5.42
